sensor_id;sensor_type;location;lat;lon;timestamp;temperature;humidity
13229;DHT22;6680;53.220;10.402;2023-08-12T00:01:59;18.30;99.90
13229;DHT22;6680;53.220;10.402;2023-08-12T00:04:26;18.50;99.90
13229;DHT22;6680;53.220;10.402;2023-08-12T00:06:53;18.50;99.90
13229;DHT22;6680;53.220;10.402;2023-08-12T00:09:19;19.20;99.90
13229;DHT22;6680;53.220;10.402;2023-08-12T00:11:46;18.50;99.90
13229;DHT22;6680;53.220;10.402;2023-08-12T00:14:14;18.30;99.90
13229;DHT22;6680;53.220;10.402;2023-08-12T00:16:41;18.50;99.90
13229;DHT22;6680;53.220;10.402;2023-08-12T00:19:07;18.50;99.90
13229;DHT22;6680;53.220;10.402;2023-08-12T00:21:34;18.50;99.90
13229;DHT22;6680;53.220;10.402;2023-08-12T00:24:01;18.50;99.90
13229;DHT22;6680;53.220;10.402;2023-08-12T00:26:28;18.60;99.90
13229;DHT22;6680;53.220;10.402;2023-08-12T00:28:54;18.50;99.90
13229;DHT22;6680;53.220;10.402;2023-08-12T00:31:22;18.50;99.90
13229;DHT22;6680;53.220;10.402;2023-08-12T00:33:49;18.50;99.90
13229;DHT22;6680;53.220;10.402;2023-08-12T00:36:15;18.50;99.90
13229;DHT22;6680;53.220;10.402;2023-08-12T00:41:09;18.50;99.90
13229;DHT22;6680;53.220;10.402;2023-08-12T00:43:36;18.50;99.90
13229;DHT22;6680;53.220;10.402;2023-08-12T00:46:04;18.50;99.90
13229;DHT22;6680;53.220;10.402;2023-08-12T00:48:32;18.50;99.90
13229;DHT22;6680;53.220;10.402;2023-08-12T00:50:59;18.40;99.90
13229;DHT22;6680;53.220;10.402;2023-08-12T00:53:26;18.40;99.90
13229;DHT22;6680;53.220;10.402;2023-08-12T00:55:52;18.40;99.90
13229;DHT22;6680;53.220;10.402;2023-08-12T00:58:20;18.40;99.90
13229;DHT22;6680;53.220;10.402;2023-08-12T01:00:46;18.40;99.90
13229;DHT22;6680;53.220;10.402;2023-08-12T01:03:13;18.30;99.90
13229;DHT22;6680;53.220;10.402;2023-08-12T01:05:41;18.30;99.90
13229;DHT22;6680;53.220;10.402;2023-08-12T01:08:08;18.30;99.90
13229;DHT22;6680;53.220;10.402;2023-08-12T01:10:36;18.30;99.90
13229;DHT22;6680;53.220;10.402;2023-08-12T01:13:09;18.30;99.90
13229;DHT22;6680;53.220;10.402;2023-08-12T01:15:40;18.30;99.90
13229;DHT22;6680;53.220;10.402;2023-08-12T01:18:08;18.30;99.90
13229;DHT22;6680;53.220;10.402;2023-08-12T01:20:35;18.30;99.90
13229;DHT22;6680;53.220;10.402;2023-08-12T01:23:13;18.30;99.90
13229;DHT22;6680;53.220;10.402;2023-08-12T01:25:40;18.30;99.90
13229;DHT22;6680;53.220;10.402;2023-08-12T01:28:07;18.30;99.90
13229;DHT22;6680;53.220;10.402;2023-08-12T01:30:43;18.20;99.90
13229;DHT22;6680;53.220;10.402;2023-08-12T01:33:19;18.30;99.90
13229;DHT22;6680;53.220;10.402;2023-08-12T01:35:53;18.30;99.90
13229;DHT22;6680;53.220;10.402;2023-08-12T01:38:24;18.30;99.90
13229;DHT22;6680;53.220;10.402;2023-08-12T01:40:52;18.30;99.90
13229;DHT22;6680;53.220;10.402;2023-08-12T01:43:19;18.30;99.90
13229;DHT22;6680;53.220;10.402;2023-08-12T01:45:45;18.30;99.90
13229;DHT22;6680;53.220;10.402;2023-08-12T01:48:12;18.30;99.90
13229;DHT22;6680;53.220;10.402;2023-08-12T01:50:39;18.20;99.90
13229;DHT22;6680;53.220;10.402;2023-08-12T01:53:12;18.30;99.90
13229;DHT22;6680;53.220;10.402;2023-08-12T01:55:42;18.20;99.90
13229;DHT22;6680;53.220;10.402;2023-08-12T01:58:09;18.20;99.90
13229;DHT22;6680;53.220;10.402;2023-08-12T02:00:36;18.00;99.90
13229;DHT22;6680;53.220;10.402;2023-08-12T02:03:03;18.10;99.90
13229;DHT22;6680;53.220;10.402;2023-08-12T02:05:30;18.10;99.90
13229;DHT22;6680;53.220;10.402;2023-08-12T02:07:56;18.10;99.90
13229;DHT22;6680;53.220;10.402;2023-08-12T02:10:23;18.10;99.90
13229;DHT22;6680;53.220;10.402;2023-08-12T02:12:51;18.10;99.90
13229;DHT22;6680;53.220;10.402;2023-08-12T02:15:18;17.60;99.90
13229;DHT22;6680;53.220;10.402;2023-08-12T02:17:47;18.10;99.90
13229;DHT22;6680;53.220;10.402;2023-08-12T02:20:14;18.10;99.90
13229;DHT22;6680;53.220;10.402;2023-08-12T02:22:40;18.00;99.90
13229;DHT22;6680;53.220;10.402;2023-08-12T02:25:08;18.00;99.90
13229;DHT22;6680;53.220;10.402;2023-08-12T02:27:34;18.00;99.90
13229;DHT22;6680;53.220;10.402;2023-08-12T02:30:03;17.90;99.90
13229;DHT22;6680;53.220;10.402;2023-08-12T02:32:30;17.90;99.90
13229;DHT22;6680;53.220;10.402;2023-08-12T02:34:57;17.90;99.90
13229;DHT22;6680;53.220;10.402;2023-08-12T02:37:23;17.90;99.90
13229;DHT22;6680;53.220;10.402;2023-08-12T02:39:50;17.80;99.90
13229;DHT22;6680;53.220;10.402;2023-08-12T02:42:17;17.80;99.90
13229;DHT22;6680;53.220;10.402;2023-08-12T02:44:43;17.80;99.90
13229;DHT22;6680;53.220;10.402;2023-08-12T02:47:11;17.80;99.90
13229;DHT22;6680;53.220;10.402;2023-08-12T02:49:38;17.80;99.90
13229;DHT22;6680;53.220;10.402;2023-08-12T02:52:05;17.80;99.90
13229;DHT22;6680;53.220;10.402;2023-08-12T02:54:31;17.90;99.90
13229;DHT22;6680;53.220;10.402;2023-08-12T02:56:58;17.90;99.90
13229;DHT22;6680;53.220;10.402;2023-08-12T02:59:25;17.60;99.90
13229;DHT22;6680;53.220;10.402;2023-08-12T03:01:52;17.90;99.90
13229;DHT22;6680;53.220;10.402;2023-08-12T03:04:23;17.90;99.90
13229;DHT22;6680;53.220;10.402;2023-08-12T03:06:50;17.90;99.90
13229;DHT22;6680;53.220;10.402;2023-08-12T03:09:16;18.00;99.90
13229;DHT22;6680;53.220;10.402;2023-08-12T03:11:43;17.90;99.90
13229;DHT22;6680;53.220;10.402;2023-08-12T03:14:10;17.90;99.90
13229;DHT22;6680;53.220;10.402;2023-08-12T03:16:37;17.90;99.90
13229;DHT22;6680;53.220;10.402;2023-08-12T03:19:03;17.90;99.90
13229;DHT22;6680;53.220;10.402;2023-08-12T03:21:31;17.90;99.90
13229;DHT22;6680;53.220;10.402;2023-08-12T03:23:59;17.90;99.90
13229;DHT22;6680;53.220;10.402;2023-08-12T03:26:26;17.80;99.90
13229;DHT22;6680;53.220;10.402;2023-08-12T03:28:53;17.80;99.90
13229;DHT22;6680;53.220;10.402;2023-08-12T03:31:19;17.80;99.90
13229;DHT22;6680;53.220;10.402;2023-08-12T03:33:46;17.80;99.90
13229;DHT22;6680;53.220;10.402;2023-08-12T03:36:13;17.80;99.90
13229;DHT22;6680;53.220;10.402;2023-08-12T03:38:41;17.80;99.90
13229;DHT22;6680;53.220;10.402;2023-08-12T03:41:08;17.80;99.90
13229;DHT22;6680;53.220;10.402;2023-08-12T03:43:34;17.70;99.90
13229;DHT22;6680;53.220;10.402;2023-08-12T03:46:03;17.70;99.90
13229;DHT22;6680;53.220;10.402;2023-08-12T03:48:29;17.70;99.90
13229;DHT22;6680;53.220;10.402;2023-08-12T03:50:56;17.70;99.90
13229;DHT22;6680;53.220;10.402;2023-08-12T03:53:23;17.70;99.90
13229;DHT22;6680;53.220;10.402;2023-08-12T03:55:51;17.70;99.90
13229;DHT22;6680;53.220;10.402;2023-08-12T03:58:17;17.80;99.90
13229;DHT22;6680;53.220;10.402;2023-08-12T04:00:44;17.70;99.90
13229;DHT22;6680;53.220;10.402;2023-08-12T04:03:11;17.80;99.90
13229;DHT22;6680;53.220;10.402;2023-08-12T04:05:37;17.90;99.90
13229;DHT22;6680;53.220;10.402;2023-08-12T04:08:04;17.90;99.90
13229;DHT22;6680;53.220;10.402;2023-08-12T04:10:32;18.10;99.90
13229;DHT22;6680;53.220;10.402;2023-08-12T04:13:00;18.00;99.90
13229;DHT22;6680;53.220;10.402;2023-08-12T04:15:27;18.00;99.90
13229;DHT22;6680;53.220;10.402;2023-08-12T04:17:54;18.00;99.90
13229;DHT22;6680;53.220;10.402;2023-08-12T04:20:20;18.00;99.90
13229;DHT22;6680;53.220;10.402;2023-08-12T04:22:47;18.00;99.90
13229;DHT22;6680;53.220;10.402;2023-08-12T04:25:14;18.30;99.90
13229;DHT22;6680;53.220;10.402;2023-08-12T04:27:41;18.00;99.90
13229;DHT22;6680;53.220;10.402;2023-08-12T04:30:09;18.10;99.90
13229;DHT22;6680;53.220;10.402;2023-08-12T04:32:36;18.10;99.90
13229;DHT22;6680;53.220;10.402;2023-08-12T04:35:03;18.10;99.90
13229;DHT22;6680;53.220;10.402;2023-08-12T04:37:30;18.10;99.90
13229;DHT22;6680;53.220;10.402;2023-08-12T04:39:57;18.20;99.90
13229;DHT22;6680;53.220;10.402;2023-08-12T04:42:24;18.10;99.90
13229;DHT22;6680;53.220;10.402;2023-08-12T04:44:51;18.10;99.90
13229;DHT22;6680;53.220;10.402;2023-08-12T04:47:19;18.20;99.90
13229;DHT22;6680;53.220;10.402;2023-08-12T04:49:46;18.20;99.90
13229;DHT22;6680;53.220;10.402;2023-08-12T04:52:12;18.30;99.90
13229;DHT22;6680;53.220;10.402;2023-08-12T04:54:39;18.30;99.90
13229;DHT22;6680;53.220;10.402;2023-08-12T04:57:05;18.40;99.90
13229;DHT22;6680;53.220;10.402;2023-08-12T04:59:32;18.40;99.90
13229;DHT22;6680;53.220;10.402;2023-08-12T05:01:59;18.50;99.90
13229;DHT22;6680;53.220;10.402;2023-08-12T05:04:27;18.50;99.90
13229;DHT22;6680;53.220;10.402;2023-08-12T05:06:53;18.60;99.90
13229;DHT22;6680;53.220;10.402;2023-08-12T05:11:47;18.70;99.90
13229;DHT22;6680;53.220;10.402;2023-08-12T05:14:13;18.80;99.90
13229;DHT22;6680;53.220;10.402;2023-08-12T05:16:40;18.90;99.90
13229;DHT22;6680;53.220;10.402;2023-08-12T05:19:07;19.00;99.90
13229;DHT22;6680;53.220;10.402;2023-08-12T05:21:35;19.00;99.90
13229;DHT22;6680;53.220;10.402;2023-08-12T05:24:01;19.00;99.90
13229;DHT22;6680;53.220;10.402;2023-08-12T05:26:28;19.00;99.90
13229;DHT22;6680;53.220;10.402;2023-08-12T05:28:57;19.10;99.90
13229;DHT22;6680;53.220;10.402;2023-08-12T05:31:24;19.00;99.90
13229;DHT22;6680;53.220;10.402;2023-08-12T05:33:51;19.00;99.90
13229;DHT22;6680;53.220;10.402;2023-08-12T05:36:17;19.00;99.90
13229;DHT22;6680;53.220;10.402;2023-08-12T05:38:45;19.00;99.90
13229;DHT22;6680;53.220;10.402;2023-08-12T05:41:12;19.00;99.90
13229;DHT22;6680;53.220;10.402;2023-08-12T05:43:39;20.10;99.90
13229;DHT22;6680;53.220;10.402;2023-08-12T05:46:05;19.00;99.90
13229;DHT22;6680;53.220;10.402;2023-08-12T05:48:32;19.00;99.90
13229;DHT22;6680;53.220;10.402;2023-08-12T05:50:58;19.10;99.90
13229;DHT22;6680;53.220;10.402;2023-08-12T05:53:25;19.10;99.90
13229;DHT22;6680;53.220;10.402;2023-08-12T05:55:53;19.20;99.90
13229;DHT22;6680;53.220;10.402;2023-08-12T05:58:20;19.20;99.90
13229;DHT22;6680;53.220;10.402;2023-08-12T06:00:46;19.30;99.90
13229;DHT22;6680;53.220;10.402;2023-08-12T06:03:13;19.40;99.90
13229;DHT22;6680;53.220;10.402;2023-08-12T06:05:40;19.50;99.90
13229;DHT22;6680;53.220;10.402;2023-08-12T06:08:07;19.60;99.90
13229;DHT22;6680;53.220;10.402;2023-08-12T06:10:34;19.90;99.90
13229;DHT22;6680;53.220;10.402;2023-08-12T06:13:02;19.80;99.90
13229;DHT22;6680;53.220;10.402;2023-08-12T06:15:29;19.90;99.90
13229;DHT22;6680;53.220;10.402;2023-08-12T06:17:55;20.10;99.90
13229;DHT22;6680;53.220;10.402;2023-08-12T06:20:23;20.30;99.90
13229;DHT22;6680;53.220;10.402;2023-08-12T06:22:49;20.40;99.90
13229;DHT22;6680;53.220;10.402;2023-08-12T06:25:16;20.60;99.90
13229;DHT22;6680;53.220;10.402;2023-08-12T06:27:43;20.70;99.90
13229;DHT22;6680;53.220;10.402;2023-08-12T06:30:12;20.80;99.90
13229;DHT22;6680;53.220;10.402;2023-08-12T06:32:39;20.90;99.90
13229;DHT22;6680;53.220;10.402;2023-08-12T06:35:07;21.00;99.90
13229;DHT22;6680;53.220;10.402;2023-08-12T06:37:34;21.10;99.90
13229;DHT22;6680;53.220;10.402;2023-08-12T06:40:00;21.80;99.90
13229;DHT22;6680;53.220;10.402;2023-08-12T06:42:27;21.30;99.90
13229;DHT22;6680;53.220;10.402;2023-08-12T06:44:57;21.40;99.90
13229;DHT22;6680;53.220;10.402;2023-08-12T06:47:26;21.50;99.90
13229;DHT22;6680;53.220;10.402;2023-08-12T06:49:55;21.50;99.90
13229;DHT22;6680;53.220;10.402;2023-08-12T06:52:22;21.60;99.90
13229;DHT22;6680;53.220;10.402;2023-08-12T06:54:48;21.60;99.90
13229;DHT22;6680;53.220;10.402;2023-08-12T06:57:15;21.60;99.90
13229;DHT22;6680;53.220;10.402;2023-08-12T06:59:42;21.70;99.90
13229;DHT22;6680;53.220;10.402;2023-08-12T07:02:08;21.70;99.90
13229;DHT22;6680;53.220;10.402;2023-08-12T07:04:36;21.80;99.90
13229;DHT22;6680;53.220;10.402;2023-08-12T07:07:03;21.80;99.90
13229;DHT22;6680;53.220;10.402;2023-08-12T07:09:30;21.90;99.90
13229;DHT22;6680;53.220;10.402;2023-08-12T07:11:56;22.10;99.90
13229;DHT22;6680;53.220;10.402;2023-08-12T07:14:23;22.20;99.90
13229;DHT22;6680;53.220;10.402;2023-08-12T07:16:50;22.30;99.90
13229;DHT22;6680;53.220;10.402;2023-08-12T07:19:16;22.40;99.90
13229;DHT22;6680;53.220;10.402;2023-08-12T07:21:44;22.40;99.90
13229;DHT22;6680;53.220;10.402;2023-08-12T07:24:11;22.50;99.90
13229;DHT22;6680;53.220;10.402;2023-08-12T07:29:05;22.50;99.90
13229;DHT22;6680;53.220;10.402;2023-08-12T07:31:31;22.50;99.90
13229;DHT22;6680;53.220;10.402;2023-08-12T07:33:58;22.60;99.90
13229;DHT22;6680;53.220;10.402;2023-08-12T07:36:25;22.60;99.90
13229;DHT22;6680;53.220;10.402;2023-08-12T07:38:53;22.60;99.90
13229;DHT22;6680;53.220;10.402;2023-08-12T07:41:19;22.70;99.90
13229;DHT22;6680;53.220;10.402;2023-08-12T07:43:46;22.70;99.90
13229;DHT22;6680;53.220;10.402;2023-08-12T07:46:13;22.80;99.90
13229;DHT22;6680;53.220;10.402;2023-08-12T07:48:39;22.80;99.90
13229;DHT22;6680;53.220;10.402;2023-08-12T07:53:34;22.90;99.90
13229;DHT22;6680;53.220;10.402;2023-08-12T07:56:02;23.00;99.90
13229;DHT22;6680;53.220;10.402;2023-08-12T07:58:28;22.90;99.90
13229;DHT22;6680;53.220;10.402;2023-08-12T08:00:55;23.00;99.90
13229;DHT22;6680;53.220;10.402;2023-08-12T08:03:22;23.00;99.90
13229;DHT22;6680;53.220;10.402;2023-08-12T08:08:15;22.90;99.90
13229;DHT22;6680;53.220;10.402;2023-08-12T08:10:42;22.40;99.90
13229;DHT22;6680;53.220;10.402;2023-08-12T08:13:10;22.70;99.90
13229;DHT22;6680;53.220;10.402;2023-08-12T08:15:36;22.70;99.90
13229;DHT22;6680;53.220;10.402;2023-08-12T08:18:03;22.70;99.90
13229;DHT22;6680;53.220;10.402;2023-08-12T08:20:30;22.70;99.90
13229;DHT22;6680;53.220;10.402;2023-08-12T08:22:57;22.70;99.90
13229;DHT22;6680;53.220;10.402;2023-08-12T08:25:24;22.80;99.90
13229;DHT22;6680;53.220;10.402;2023-08-12T08:27:50;22.80;99.90
13229;DHT22;6680;53.220;10.402;2023-08-12T08:30:19;23.00;99.90
13229;DHT22;6680;53.220;10.402;2023-08-12T08:32:46;23.00;99.90
13229;DHT22;6680;53.220;10.402;2023-08-12T08:35:13;23.10;99.90
13229;DHT22;6680;53.220;10.402;2023-08-12T08:37:40;23.10;99.90
13229;DHT22;6680;53.220;10.402;2023-08-12T08:40:08;23.20;99.90
13229;DHT22;6680;53.220;10.402;2023-08-12T08:42:35;23.20;99.90
13229;DHT22;6680;53.220;10.402;2023-08-12T08:45:05;23.30;99.90
13229;DHT22;6680;53.220;10.402;2023-08-12T08:47:34;23.40;99.90
13229;DHT22;6680;53.220;10.402;2023-08-12T08:50:01;23.40;99.90
13229;DHT22;6680;53.220;10.402;2023-08-12T08:52:28;23.50;99.90
13229;DHT22;6680;53.220;10.402;2023-08-12T08:54:55;23.60;99.90
13229;DHT22;6680;53.220;10.402;2023-08-12T08:57:22;23.80;99.90
13229;DHT22;6680;53.220;10.402;2023-08-12T08:59:49;23.90;99.90
13229;DHT22;6680;53.220;10.402;2023-08-12T09:02:17;24.00;99.90
13229;DHT22;6680;53.220;10.402;2023-08-12T09:04:45;24.10;99.90
13229;DHT22;6680;53.220;10.402;2023-08-12T09:07:13;24.30;99.90
13229;DHT22;6680;53.220;10.402;2023-08-12T09:09:44;24.50;99.90
13229;DHT22;6680;53.220;10.402;2023-08-12T09:12:14;24.60;99.90
13229;DHT22;6680;53.220;10.402;2023-08-12T09:14:41;24.60;99.90
13229;DHT22;6680;53.220;10.402;2023-08-12T09:17:09;24.60;99.90
13229;DHT22;6680;53.220;10.402;2023-08-12T09:19:35;24.60;99.90
13229;DHT22;6680;53.220;10.402;2023-08-12T09:22:04;24.50;99.90
13229;DHT22;6680;53.220;10.402;2023-08-12T09:24:31;24.50;99.90
13229;DHT22;6680;53.220;10.402;2023-08-12T09:26:58;24.50;99.90
13229;DHT22;6680;53.220;10.402;2023-08-12T09:29:29;24.60;99.90
13229;DHT22;6680;53.220;10.402;2023-08-12T09:32:05;24.60;99.90
13229;DHT22;6680;53.220;10.402;2023-08-12T09:34:32;24.70;99.90
13229;DHT22;6680;53.220;10.402;2023-08-12T09:36:59;24.70;99.90
13229;DHT22;6680;53.220;10.402;2023-08-12T09:39:28;24.70;99.90
13229;DHT22;6680;53.220;10.402;2023-08-12T09:44:23;24.90;99.90
13229;DHT22;6680;53.220;10.402;2023-08-12T09:46:56;24.90;99.90
13229;DHT22;6680;53.220;10.402;2023-08-12T09:49:23;24.90;99.90
13229;DHT22;6680;53.220;10.402;2023-08-12T09:51:50;24.90;99.90
13229;DHT22;6680;53.220;10.402;2023-08-12T09:54:17;24.90;99.90
13229;DHT22;6680;53.220;10.402;2023-08-12T09:56:48;24.90;99.90
13229;DHT22;6680;53.220;10.402;2023-08-12T09:59:19;24.90;99.90
13229;DHT22;6680;53.220;10.402;2023-08-12T10:01:48;25.00;99.90
13229;DHT22;6680;53.220;10.402;2023-08-12T10:04:17;25.00;99.90
13229;DHT22;6680;53.220;10.402;2023-08-12T10:06:44;25.00;99.90
13229;DHT22;6680;53.220;10.402;2023-08-12T10:09:13;25.00;99.90
13229;DHT22;6680;53.220;10.402;2023-08-12T10:11:41;25.20;99.90
13229;DHT22;6680;53.220;10.402;2023-08-12T10:14:10;25.40;99.90
13229;DHT22;6680;53.220;10.402;2023-08-12T10:16:37;25.50;99.90
13229;DHT22;6680;53.220;10.402;2023-08-12T10:19:05;25.60;99.90
13229;DHT22;6680;53.220;10.402;2023-08-12T10:21:32;25.70;99.90
13229;DHT22;6680;53.220;10.402;2023-08-12T10:23:59;25.70;99.90
13229;DHT22;6680;53.220;10.402;2023-08-12T10:26:26;25.70;99.90
13229;DHT22;6680;53.220;10.402;2023-08-12T10:28:54;25.60;99.90
13229;DHT22;6680;53.220;10.402;2023-08-12T10:31:24;25.50;99.90
13229;DHT22;6680;53.220;10.402;2023-08-12T10:33:52;25.40;99.90
13229;DHT22;6680;53.220;10.402;2023-08-12T10:36:22;25.50;99.90
13229;DHT22;6680;53.220;10.402;2023-08-12T10:41:18;25.70;99.90
13229;DHT22;6680;53.220;10.402;2023-08-12T10:43:52;25.70;99.90
13229;DHT22;6680;53.220;10.402;2023-08-12T10:46:28;25.60;99.90
13229;DHT22;6680;53.220;10.402;2023-08-12T10:48:57;25.40;99.90
13229;DHT22;6680;53.220;10.402;2023-08-12T10:51:39;25.10;99.90
13229;DHT22;6680;53.220;10.402;2023-08-12T10:54:14;24.80;99.90
13229;DHT22;6680;53.220;10.402;2023-08-12T10:57:06;24.50;99.90
13229;DHT22;6680;53.220;10.402;2023-08-12T10:59:56;24.30;99.90
13229;DHT22;6680;53.220;10.402;2023-08-12T11:02:29;24.10;99.90
13229;DHT22;6680;53.220;10.402;2023-08-12T11:05:00;24.10;99.90
13229;DHT22;6680;53.220;10.402;2023-08-12T11:07:32;24.10;99.90
13229;DHT22;6680;53.220;10.402;2023-08-12T11:10:04;25.10;99.90
13229;DHT22;6680;53.220;10.402;2023-08-12T11:12:33;24.70;99.90
13229;DHT22;6680;53.220;10.402;2023-08-12T11:15:01;24.80;99.90
13229;DHT22;6680;53.220;10.402;2023-08-12T11:17:33;25.00;99.90
13229;DHT22;6680;53.220;10.402;2023-08-12T11:20:01;25.00;99.90
13229;DHT22;6680;53.220;10.402;2023-08-12T11:27:24;25.00;99.90
13229;DHT22;6680;53.220;10.402;2023-08-12T11:32:17;24.90;99.90
13229;DHT22;6680;53.220;10.402;2023-08-12T11:34:45;24.90;99.90
13229;DHT22;6680;53.220;10.402;2023-08-12T11:42:06;25.00;99.90
13229;DHT22;6680;53.220;10.402;2023-08-12T11:44:33;25.40;99.90
13229;DHT22;6680;53.220;10.402;2023-08-12T11:51:55;25.30;99.90
13229;DHT22;6680;53.220;10.402;2023-08-12T11:54:22;25.30;99.90
13229;DHT22;6680;53.220;10.402;2023-08-12T11:56:48;25.30;99.90
13229;DHT22;6680;53.220;10.402;2023-08-12T11:59:15;25.30;99.90
13229;DHT22;6680;53.220;10.402;2023-08-12T12:01:46;25.20;99.90
13229;DHT22;6680;53.220;10.402;2023-08-12T12:04:15;25.00;99.90
13229;DHT22;6680;53.220;10.402;2023-08-12T12:06:42;25.00;99.90
13229;DHT22;6680;53.220;10.402;2023-08-12T12:09:11;24.90;99.90
13229;DHT22;6680;53.220;10.402;2023-08-12T12:11:40;24.90;99.90
13229;DHT22;6680;53.220;10.402;2023-08-12T12:14:07;25.10;99.90
13229;DHT22;6680;53.220;10.402;2023-08-12T12:16:39;25.40;99.90
13229;DHT22;6680;53.220;10.402;2023-08-12T12:19:09;25.70;99.90
13229;DHT22;6680;53.220;10.402;2023-08-12T12:21:39;25.90;99.90
13229;DHT22;6680;53.220;10.402;2023-08-12T12:24:06;26.10;99.90
13229;DHT22;6680;53.220;10.402;2023-08-12T12:26:35;26.20;99.90
13229;DHT22;6680;53.220;10.402;2023-08-12T12:29:02;26.30;99.90
13229;DHT22;6680;53.220;10.402;2023-08-12T12:31:28;26.40;99.90
13229;DHT22;6680;53.220;10.402;2023-08-12T12:33:55;26.40;99.90
13229;DHT22;6680;53.220;10.402;2023-08-12T12:36:22;26.50;99.90
13229;DHT22;6680;53.220;10.402;2023-08-12T12:38:49;26.70;99.90
13229;DHT22;6680;53.220;10.402;2023-08-12T12:41:16;26.90;99.90
13229;DHT22;6680;53.220;10.402;2023-08-12T12:43:44;27.10;99.90
13229;DHT22;6680;53.220;10.402;2023-08-12T12:46:11;27.30;99.90
13229;DHT22;6680;53.220;10.402;2023-08-12T12:48:37;27.40;99.90
13229;DHT22;6680;53.220;10.402;2023-08-12T12:51:04;27.40;99.90
13229;DHT22;6680;53.220;10.402;2023-08-12T12:55:58;27.10;99.90
13229;DHT22;6680;53.220;10.402;2023-08-12T12:58:29;26.90;99.90
13229;DHT22;6680;53.220;10.402;2023-08-12T13:00:57;26.90;99.90
13229;DHT22;6680;53.220;10.402;2023-08-12T13:03:24;26.90;99.90
13229;DHT22;6680;53.220;10.402;2023-08-12T13:05:50;27.00;99.90
13229;DHT22;6680;53.220;10.402;2023-08-12T13:08:17;26.90;99.90
13229;DHT22;6680;53.220;10.402;2023-08-12T13:10:44;26.80;99.90
13229;DHT22;6680;53.220;10.402;2023-08-12T13:13:13;26.80;99.90
13229;DHT22;6680;53.220;10.402;2023-08-12T13:15:40;26.80;99.90
13229;DHT22;6680;53.220;10.402;2023-08-12T13:18:09;26.70;99.90
13229;DHT22;6680;53.220;10.402;2023-08-12T13:20:36;26.30;99.90
13229;DHT22;6680;53.220;10.402;2023-08-12T13:23:04;26.60;99.90
13229;DHT22;6680;53.220;10.402;2023-08-12T13:25:32;26.50;99.90
13229;DHT22;6680;53.220;10.402;2023-08-12T13:27:59;26.40;99.90
13229;DHT22;6680;53.220;10.402;2023-08-12T13:30:27;26.30;99.90
13229;DHT22;6680;53.220;10.402;2023-08-12T13:32:53;26.10;99.90
13229;DHT22;6680;53.220;10.402;2023-08-12T13:35:22;25.90;99.90
13229;DHT22;6680;53.220;10.402;2023-08-12T13:37:49;25.80;99.90
13229;DHT22;6680;53.220;10.402;2023-08-12T13:40:17;25.60;99.90
13229;DHT22;6680;53.220;10.402;2023-08-12T13:42:44;25.50;99.90
13229;DHT22;6680;53.220;10.402;2023-08-12T13:45:11;25.30;99.90
13229;DHT22;6680;53.220;10.402;2023-08-12T13:47:38;25.30;99.90
13229;DHT22;6680;53.220;10.402;2023-08-12T13:50:06;25.30;99.90
13229;DHT22;6680;53.220;10.402;2023-08-12T13:52:34;25.30;99.90
13229;DHT22;6680;53.220;10.402;2023-08-12T13:55:01;25.30;99.90
13229;DHT22;6680;53.220;10.402;2023-08-12T13:57:28;25.50;99.90
13229;DHT22;6680;53.220;10.402;2023-08-12T13:59:55;25.50;99.90
13229;DHT22;6680;53.220;10.402;2023-08-12T14:02:21;25.50;99.90
13229;DHT22;6680;53.220;10.402;2023-08-12T14:04:48;25.40;99.90
13229;DHT22;6680;53.220;10.402;2023-08-12T14:07:15;25.30;99.90
13229;DHT22;6680;53.220;10.402;2023-08-12T14:09:43;25.30;99.90
13229;DHT22;6680;53.220;10.402;2023-08-12T14:12:09;25.20;99.90
13229;DHT22;6680;53.220;10.402;2023-08-12T14:14:36;25.00;99.90
13229;DHT22;6680;53.220;10.402;2023-08-12T14:17:03;24.90;99.90
13229;DHT22;6680;53.220;10.402;2023-08-12T14:19:29;24.80;99.90
13229;DHT22;6680;53.220;10.402;2023-08-12T14:21:56;24.70;99.90
13229;DHT22;6680;53.220;10.402;2023-08-12T14:24:22;24.60;99.90
13229;DHT22;6680;53.220;10.402;2023-08-12T14:26:51;24.50;99.90
13229;DHT22;6680;53.220;10.402;2023-08-12T14:29:17;24.40;99.90
13229;DHT22;6680;53.220;10.402;2023-08-12T14:31:44;24.30;99.90
13229;DHT22;6680;53.220;10.402;2023-08-12T14:34:10;24.20;99.90
13229;DHT22;6680;53.220;10.402;2023-08-12T14:36:37;24.10;99.90
13229;DHT22;6680;53.220;10.402;2023-08-12T14:39:04;24.00;99.90
13229;DHT22;6680;53.220;10.402;2023-08-12T14:41:31;23.80;99.90
13229;DHT22;6680;53.220;10.402;2023-08-12T14:43:59;23.70;99.90
13229;DHT22;6680;53.220;10.402;2023-08-12T14:46:25;23.50;99.90
13229;DHT22;6680;53.220;10.402;2023-08-12T14:48:52;23.30;99.90
13229;DHT22;6680;53.220;10.402;2023-08-12T14:51:20;23.20;99.90
13229;DHT22;6680;53.220;10.402;2023-08-12T14:53:47;23.10;99.90
13229;DHT22;6680;53.220;10.402;2023-08-12T14:58:40;23.10;99.90
13229;DHT22;6680;53.220;10.402;2023-08-12T15:01:08;23.20;99.90
13229;DHT22;6680;53.220;10.402;2023-08-12T15:03:35;23.40;99.90
13229;DHT22;6680;53.220;10.402;2023-08-12T15:06:02;23.60;99.90
13229;DHT22;6680;53.220;10.402;2023-08-12T15:08:29;23.80;99.90
13229;DHT22;6680;53.220;10.402;2023-08-12T15:10:56;24.10;99.90
13229;DHT22;6680;53.220;10.402;2023-08-12T15:13:24;24.30;99.90
13229;DHT22;6680;53.220;10.402;2023-08-12T15:15:51;24.50;99.90
13229;DHT22;6680;53.220;10.402;2023-08-12T15:18:19;24.70;99.90
13229;DHT22;6680;53.220;10.402;2023-08-12T15:20:45;24.80;99.90
13229;DHT22;6680;53.220;10.402;2023-08-12T15:23:12;24.90;99.90
13229;DHT22;6680;53.220;10.402;2023-08-12T15:25:42;25.00;99.90
13229;DHT22;6680;53.220;10.402;2023-08-12T15:28:09;25.20;99.90
13229;DHT22;6680;53.220;10.402;2023-08-12T15:30:35;25.00;99.90
13229;DHT22;6680;53.220;10.402;2023-08-12T15:33:02;25.00;99.90
13229;DHT22;6680;53.220;10.402;2023-08-12T15:35:30;25.00;99.90
13229;DHT22;6680;53.220;10.402;2023-08-12T15:37:57;24.80;99.90
13229;DHT22;6680;53.220;10.402;2023-08-12T15:40:23;24.70;99.90
13229;DHT22;6680;53.220;10.402;2023-08-12T15:42:50;24.70;99.90
13229;DHT22;6680;53.220;10.402;2023-08-12T15:45:17;24.70;99.90
13229;DHT22;6680;53.220;10.402;2023-08-12T15:47:43;24.60;99.90
13229;DHT22;6680;53.220;10.402;2023-08-12T15:50:10;24.60;99.90
13229;DHT22;6680;53.220;10.402;2023-08-12T15:52:38;24.50;99.90
13229;DHT22;6680;53.220;10.402;2023-08-12T15:55:05;24.40;99.90
13229;DHT22;6680;53.220;10.402;2023-08-12T15:57:32;24.30;99.90
13229;DHT22;6680;53.220;10.402;2023-08-12T15:59:59;24.10;99.90
13229;DHT22;6680;53.220;10.402;2023-08-12T16:02:26;24.10;99.90
13229;DHT22;6680;53.220;10.402;2023-08-12T16:04:53;24.00;99.90
13229;DHT22;6680;53.220;10.402;2023-08-12T16:07:19;23.90;99.90
13229;DHT22;6680;53.220;10.402;2023-08-12T16:09:47;23.80;99.90
13229;DHT22;6680;53.220;10.402;2023-08-12T16:12:14;23.80;99.90